x

Prestwick Rnas (03136) Weather Station

11:00pm - Thu 5th Mar 2015 All times are GMT.

  • Wind
    23mph, 33mph gusts
  • 空気 Temp 47°f
  • Sea Pressure 1027mb
  • Prestwick Rnas
  • Prestwick Rnas

More Historic Weather Station data

Upgrade to MSW Pro to gain access to the past 30 days of data for over 8000 Wavebouys and Weather Stations around the globe.

Join Pro

Comparision Forecast

View Surf forecast
   
Thu 03/05 11:00pm 23 33 mph 1027mb 47f
10:00pm 22 33 mph 1028mb 48f
9:00pm 23 37 mph 1028mb 49f
8:00pm 26 37 mph 1027mb 50f
7:00pm 24 36 mph 1028mb 50f
6:00pm 24 36 mph 1027mb 50f
5:00pm 25 36 mph 1027mb 50f
4:00pm 21 36 mph 1027mb 52f
3:00pm 29 40 mph 1028mb 50f
2:00pm 28 37 mph 1028mb 50f
1:00pm 22 36 mph 1029mb 49f
12:00pm 21 31 mph 1029mb 50f
11:00am 19 30 mph 1030mb 47f
10:00am 16 28 mph 1030mb 47f
9:00am 16 33 mph 1030mb 46f
8:00am 25 34 mph 1030mb 46f
7:00am 19 29 mph 1030mb 46f
6:00am 15
mph
1031mb 45f
5:00am 16 29 mph 1031mb 46f
4:00am 19 32 mph 1031mb 46f
3:00am 21 32 mph 1031mb 46f
2:00am 22 32 mph 1032mb 45f
1:00am 19 30 mph 1032mb 45f
12:00am 21
mph
1032mb 45f
Wed 03/04 11:00pm 17 29 mph 1032mb 44f
10:00pm 15
mph
1032mb 44f
9:00pm 9
mph
1032mb 44f
8:00pm 14
mph
1032mb 45f
7:00pm 9
mph
1032mb 45f
6:00pm 8
mph
1031mb 44f
5:00pm 9
mph
1031mb 45f
10:00am 6
mph
1025mb 43f
9:00am 13
mph
1024mb 42f
8:00am 13
mph
1022mb 43f
7:00am 10
mph
1020mb 41f
6:00am 9
mph
1019mb 41f
5:00am 7
mph
1018mb 40f
4:00am 7
mph
1017mb 39f
3:00am 11
mph
1015mb 40f
2:00am 8
mph
1014mb 39f
1:00am 14
mph
1013mb 42f
12:00am 16 30 mph 1012mb 42f
Tue 03/03 11:00pm 16 29 mph 1011mb 42f
10:00pm 16 29 mph 1010mb 42f
9:00pm 19 32 mph 1009mb 42f
8:00pm 18 41 mph 1007mb 43f
7:00pm 32 48 mph 1006mb 41f
6:00pm 25 37 mph 1006mb 41f
5:00pm 22 39 mph 1006mb 40f
4:00pm 30 40 mph 1005mb 40f
3:00pm 26 40 mph 1005mb 41f
2:00pm 26 38 mph 1006mb 40f
1:00pm 25 33 mph 1006mb 40f
12:00pm 24 34 mph 1006mb 38f
11:00am 24 34 mph 1005mb 40f
10:00am 24 33 mph 1005mb 38f
9:00am 19 29 mph 1005mb 37f
8:00am 18 32 mph 1004mb 37f
7:00am 19 30 mph 1004mb 38f
6:00am 21 32 mph 1003mb 37f
5:00am 25 38 mph 1003mb 37f
4:00am 26 40 mph 1003mb 37f
3:00am 25 38 mph 1003mb 38f
2:00am 21 39 mph 1003mb 38f
1:00am 24 38 mph 1003mb 38f
12:00am 29 40 mph 1003mb 38f
Mon 03/02 11:00pm 24 39 mph 1003mb 37f
10:00pm 24 38 mph 1003mb 38f
9:00pm 26 38 mph 1002mb 38f
8:00pm 25 39 mph 1002mb 39f
7:00pm 24 34 mph 1002mb 39f
6:00pm 24 36 mph 1001mb 38f
5:00pm 26 39 mph 1001mb 39f
4:00pm 26 38 mph 1001mb 39f
3:00pm 28 40 mph 1000mb 41f
2:00pm 21 36 mph 1000mb 36f
1:00pm 22 37 mph 999mb 38f
12:00pm 15 36 mph 999mb 39f
11:00am 18 41 mph 997mb 40f
10:00am 9 33 mph 995mb 34f
9:00am 16 30 mph 994mb 37f
8:00am 18 39 mph 993mb 35f
7:00am 16 34 mph 992mb 37f
6:00am 22 31 mph 991mb 38f
5:00am 23 34 mph 991mb 38f
4:00am 17 29 mph 992mb 38f
3:00am 22 31 mph 992mb 39f
2:00am 22 33 mph 992mb 39f
1:00am 18 34 mph 992mb 39f
12:00am 25 34 mph 992mb 39f